createdAt,value
2023-01-13T00:01:14.935Z,19.48
2023-01-13T00:03:42.410Z,19.46
2023-01-13T00:06:17.093Z,19.44
2023-01-13T00:08:44.473Z,19.40
2023-01-13T00:11:11.794Z,19.41
2023-01-13T00:13:39.569Z,19.43
2023-01-13T00:16:10.467Z,19.38
2023-01-13T00:18:37.725Z,19.33
2023-01-13T00:21:08.314Z,19.32
2023-01-13T00:23:36.045Z,19.32
2023-01-13T00:26:06.482Z,19.32
2023-01-13T00:28:34.334Z,19.33
2023-01-13T00:31:09.260Z,19.35
2023-01-13T00:33:36.971Z,19.34
2023-01-13T00:36:06.277Z,19.31
2023-01-13T00:38:35.248Z,19.30
2023-01-13T00:41:05.902Z,19.29
2023-01-13T00:43:34.352Z,19.28
2023-01-13T00:46:02.218Z,19.25
2023-01-13T00:48:30.062Z,19.26
2023-01-13T00:50:59.460Z,19.29
2023-01-13T00:53:27.308Z,19.29
2023-01-13T00:56:06.264Z,19.26
2023-01-13T00:58:34.993Z,19.28
2023-01-13T01:01:04.234Z,19.27
2023-01-13T01:03:40.293Z,19.26
2023-01-13T01:06:16.866Z,19.29
2023-01-13T01:08:45.738Z,19.30
2023-01-13T01:11:15.878Z,19.27
2023-01-13T01:13:50.287Z,19.25
2023-01-13T01:16:19.633Z,19.25
2023-01-13T01:18:49.552Z,19.20
2023-01-13T01:21:17.866Z,19.17
2023-01-13T01:23:45.533Z,19.15
2023-01-13T01:26:16.411Z,19.12
2023-01-13T01:28:44.062Z,19.11
2023-01-13T01:31:15.269Z,19.17
2023-01-13T01:33:42.817Z,19.17
2023-01-13T01:36:12.411Z,19.18
2023-01-13T01:38:39.632Z,19.13
2023-01-13T01:41:07.661Z,19.10
2023-01-13T01:44:07.505Z,19.00
2023-01-13T01:46:37.437Z,18.91
2023-01-13T01:49:19.708Z,18.78
2023-01-13T01:51:48.916Z,18.69
2023-01-13T01:54:37.564Z,18.69
2023-01-13T01:57:05.538Z,18.73
2023-01-13T01:59:33.896Z,18.73
2023-01-13T02:02:01.218Z,18.76
2023-01-13T02:04:35.614Z,18.78
2023-01-13T02:07:03.613Z,18.85
2023-01-13T02:09:31.392Z,18.91
2023-01-13T02:12:16.831Z,18.96
2023-01-13T02:14:44.623Z,19.00
2023-01-13T02:17:18.574Z,19.03
2023-01-13T02:19:48.181Z,19.05
2023-01-13T02:22:27.742Z,19.07
2023-01-13T02:25:07.467Z,19.13
2023-01-13T02:27:49.593Z,19.16
2023-01-13T02:31:02.808Z,19.18
2023-01-13T02:33:32.565Z,19.20
2023-01-13T02:36:32.013Z,19.21
2023-01-13T02:39:07.802Z,19.23
2023-01-13T02:42:00.058Z,19.21
2023-01-13T02:44:34.516Z,19.23
2023-01-13T02:47:06.989Z,19.25
2023-01-13T02:49:36.936Z,19.28
2023-01-13T02:52:15.454Z,19.31
2023-01-13T02:54:47.277Z,19.30
2023-01-13T02:57:17.977Z,19.33
2023-01-13T02:59:45.475Z,19.38
2023-01-13T03:02:19.067Z,19.43
2023-01-13T03:04:48.051Z,19.46
2023-01-13T03:07:33.111Z,19.48
2023-01-13T03:10:10.729Z,19.51
2023-01-13T03:13:08.511Z,19.53
2023-01-13T03:16:15.002Z,19.52
2023-01-13T03:19:22.085Z,19.52
2023-01-13T03:21:55.716Z,19.48
2023-01-13T03:24:37.266Z,19.48
2023-01-13T03:27:43.515Z,19.42
2023-01-13T03:30:30.041Z,19.39
2023-01-13T03:33:02.563Z,19.39
2023-01-13T03:35:33.222Z,19.41
2023-01-13T03:38:05.841Z,19.43
2023-01-13T03:40:39.111Z,19.46
2023-01-13T03:44:03.086Z,19.50
2023-01-13T03:46:37.458Z,19.50
2023-01-13T03:49:07.922Z,19.50
2023-01-13T03:51:39.558Z,19.48
2023-01-13T03:54:11.677Z,19.46
2023-01-13T03:57:10.974Z,19.45
2023-01-13T03:59:42.958Z,19.48
2023-01-13T04:02:18.179Z,19.48
2023-01-13T04:04:53.974Z,19.46
2023-01-13T04:07:42.233Z,19.47
2023-01-13T04:10:10.766Z,19.48
2023-01-13T04:13:01.027Z,19.50
2023-01-13T04:15:47.403Z,19.55
2023-01-13T04:18:29.130Z,19.56
2023-01-13T04:21:00.345Z,19.59
2023-01-13T04:23:28.375Z,19.57
2023-01-13T04:25:56.043Z,19.51
2023-01-13T04:28:23.844Z,19.45
2023-01-13T04:30:51.302Z,19.36
2023-01-13T04:33:19.629Z,19.29
2023-01-13T04:35:47.833Z,19.30
2023-01-13T04:38:17.622Z,19.30
2023-01-13T04:40:45.839Z,19.31
2023-01-13T04:43:13.223Z,19.33
2023-01-13T04:45:40.305Z,19.31
2023-01-13T04:48:07.908Z,19.32
2023-01-13T04:50:35.599Z,19.36
2023-01-13T04:53:02.730Z,19.37
2023-01-13T04:55:30.400Z,19.40
2023-01-13T04:58:10.528Z,19.42
2023-01-13T05:00:42.314Z,19.45
2023-01-13T05:03:09.510Z,19.49
2023-01-13T05:05:36.549Z,19.51
2023-01-13T05:08:03.818Z,19.54
2023-01-13T05:10:31.130Z,19.54
2023-01-13T05:13:16.605Z,19.53
2023-01-13T05:16:02.714Z,19.47
2023-01-13T05:18:31.550Z,19.40
2023-01-13T05:20:58.595Z,19.31
2023-01-13T05:23:44.110Z,19.29
2023-01-13T05:26:11.216Z,19.26
2023-01-13T05:28:38.302Z,19.18
2023-01-13T05:31:05.521Z,19.13
2023-01-13T05:33:34.905Z,19.15
2023-01-13T05:36:04.135Z,19.12
2023-01-13T05:38:31.320Z,19.08
2023-01-13T05:41:18.891Z,19.08
2023-01-13T05:43:46.102Z,19.05
2023-01-13T05:46:13.205Z,19.03
2023-01-13T05:48:42.658Z,19.00
2023-01-13T05:51:12.122Z,18.94
2023-01-13T05:53:41.165Z,18.85
2023-01-13T05:56:09.902Z,18.86
2023-01-13T05:58:37.317Z,18.87
2023-01-13T06:01:08.220Z,18.82
2023-01-13T06:03:35.380Z,18.86
2023-01-13T06:06:04.381Z,18.86
2023-01-13T06:08:32.041Z,18.85
2023-01-13T06:10:59.300Z,18.87
2023-01-13T06:13:26.599Z,18.89
2023-01-13T06:15:58.404Z,18.91
2023-01-13T06:18:25.871Z,18.90
2023-01-13T06:20:52.881Z,18.88
2023-01-13T06:23:20.044Z,18.86
2023-01-13T06:26:02.601Z,18.87
2023-01-13T06:28:29.759Z,18.87
2023-01-13T06:31:00.377Z,18.89
2023-01-13T06:33:32.299Z,18.89
2023-01-13T06:36:03.660Z,18.94
2023-01-13T06:38:35.464Z,18.99
2023-01-13T06:41:03.070Z,18.99
2023-01-13T06:43:30.218Z,18.98
2023-01-13T06:45:57.349Z,18.93
2023-01-13T06:48:29.307Z,18.90
2023-01-13T06:50:56.478Z,18.86
2023-01-13T06:53:23.677Z,18.77
2023-01-13T06:55:50.885Z,18.76
2023-01-13T06:58:18.020Z,18.80
2023-01-13T07:00:49.891Z,18.87
2023-01-13T07:03:19.637Z,18.93
2023-01-13T07:05:53.385Z,18.90
2023-01-13T07:08:21.168Z,18.93
2023-01-13T07:10:48.323Z,18.91
2023-01-13T07:13:34.061Z,18.93
2023-01-13T07:16:04.620Z,18.87
2023-01-13T07:18:33.558Z,18.88
2023-01-13T07:21:06.285Z,18.94
2023-01-13T07:23:36.530Z,19.01
2023-01-13T07:26:05.097Z,19.00
2023-01-13T07:28:32.787Z,18.90
2023-01-13T07:31:00.739Z,18.74
2023-01-13T07:33:28.050Z,18.63
2023-01-13T07:36:03.116Z,18.50
2023-01-13T07:38:31.360Z,18.43
2023-01-13T07:40:58.567Z,18.45
2023-01-13T07:43:34.698Z,18.48
2023-01-13T07:46:06.543Z,18.52
2023-01-13T07:48:34.897Z,18.53
2023-01-13T07:51:03.647Z,18.56
2023-01-13T07:53:30.885Z,18.61
2023-01-13T07:55:58.915Z,18.63
2023-01-13T07:58:27.160Z,18.63
2023-01-13T08:00:55.185Z,18.65
2023-01-13T08:03:23.474Z,18.60
2023-01-13T08:05:51.047Z,18.45
2023-01-13T08:08:18.419Z,18.34
2023-01-13T08:10:45.584Z,18.30
2023-01-13T08:13:22.976Z,18.28
2023-01-13T08:15:59.087Z,18.32
2023-01-13T08:18:26.199Z,18.34
2023-01-13T08:20:53.371Z,18.41
2023-01-13T08:23:21.782Z,18.41
2023-01-13T08:25:49.494Z,18.41
2023-01-13T08:28:17.691Z,18.46
2023-01-13T08:30:44.924Z,18.53
2023-01-13T08:33:13.177Z,18.53
2023-01-13T08:35:41.247Z,18.51
2023-01-13T08:38:09.236Z,18.57
2023-01-13T08:40:37.071Z,18.64
2023-01-13T08:43:05.167Z,18.70
2023-01-13T08:45:32.313Z,18.75
2023-01-13T08:47:59.796Z,18.83
2023-01-13T08:50:26.796Z,18.86
2023-01-13T08:52:54.304Z,18.86
2023-01-13T08:55:21.929Z,18.87
2023-01-13T08:57:49.015Z,18.92
2023-01-13T09:00:17.424Z,18.92
2023-01-13T09:02:44.790Z,18.92
2023-01-13T09:05:11.957Z,18.87
2023-01-13T09:07:39.603Z,18.91
2023-01-13T09:10:08.169Z,18.95
2023-01-13T09:12:53.816Z,18.94
2023-01-13T09:15:21.961Z,18.95
2023-01-13T09:17:49.096Z,19.00
2023-01-13T09:20:16.383Z,19.02
2023-01-13T09:22:44.055Z,19.06
2023-01-13T09:25:12.919Z,19.06
2023-01-13T09:27:40.208Z,19.09
2023-01-13T09:30:07.872Z,19.08
2023-01-13T09:32:35.167Z,19.02
2023-01-13T09:35:02.562Z,18.95
2023-01-13T09:37:31.758Z,18.89
2023-01-13T09:39:59.001Z,18.87
2023-01-13T09:42:52.083Z,18.87
2023-01-13T09:45:42.287Z,18.89
2023-01-13T09:48:25.822Z,18.92
2023-01-13T09:51:07.081Z,18.94
2023-01-13T09:53:56.055Z,19.04
2023-01-13T09:56:27.136Z,19.12
2023-01-13T09:58:54.167Z,19.22
2023-01-13T10:01:35.216Z,19.27
2023-01-13T10:04:11.577Z,19.36
2023-01-13T10:06:42.611Z,19.41
2023-01-13T10:09:17.530Z,19.44
2023-01-13T10:12:05.528Z,19.51
2023-01-13T10:14:41.774Z,19.49
2023-01-13T10:17:18.367Z,19.51
2023-01-13T10:19:53.236Z,19.58
2023-01-13T10:22:23.281Z,19.64
2023-01-13T10:25:10.099Z,19.72
2023-01-13T10:27:39.633Z,19.75
2023-01-13T10:30:22.647Z,19.84
2023-01-13T10:33:17.863Z,19.88
2023-01-13T10:35:55.872Z,19.88
2023-01-13T10:38:27.396Z,19.89
2023-01-13T10:41:03.868Z,19.91
2023-01-13T10:43:31.871Z,19.93
2023-01-13T10:46:06.189Z,19.91
2023-01-13T10:48:42.297Z,19.92
2023-01-13T10:51:21.197Z,19.93
2023-01-13T10:53:58.966Z,19.90
2023-01-13T10:56:29.687Z,19.87
2023-01-13T10:59:23.206Z,19.85
2023-01-13T11:01:58.831Z,19.83
2023-01-13T11:04:43.124Z,19.81
2023-01-13T11:07:40.974Z,19.76
2023-01-13T11:10:23.461Z,19.74
2023-01-13T11:13:15.972Z,19.72
2023-01-13T11:16:14.661Z,19.71
2023-01-13T11:19:12.358Z,19.69
2023-01-13T11:22:04.310Z,19.66
2023-01-13T11:24:40.479Z,19.63
2023-01-13T11:27:22.387Z,19.59
2023-01-13T11:29:52.187Z,19.59
2023-01-13T11:32:22.115Z,19.59
2023-01-13T11:34:54.914Z,19.63
2023-01-13T11:37:33.938Z,19.67
2023-01-13T11:40:11.890Z,19.70
2023-01-13T11:42:43.472Z,19.76
2023-01-13T11:45:29.622Z,19.82
2023-01-13T11:48:00.474Z,19.90
2023-01-13T11:50:51.003Z,19.99
2023-01-13T11:53:53.350Z,20.06
2023-01-13T11:56:41.860Z,20.16
2023-01-13T11:59:26.481Z,20.23
2023-01-13T12:02:12.481Z,20.23
2023-01-13T12:04:50.254Z,20.21
2023-01-13T12:07:55.219Z,20.09
2023-01-13T12:10:53.805Z,20.07
2023-01-13T12:13:20.858Z,20.12
2023-01-13T12:16:05.967Z,20.29
2023-01-13T12:19:28.276Z,20.18
2023-01-13T12:22:09.556Z,20.21
2023-01-13T12:24:55.686Z,20.19
2023-01-13T12:27:41.904Z,20.21
2023-01-13T12:30:43.045Z,20.20
2023-01-13T12:33:39.890Z,20.21
2023-01-13T12:36:15.848Z,20.19
2023-01-13T12:38:48.425Z,20.13
2023-01-13T12:41:39.127Z,20.16
2023-01-13T12:44:17.964Z,20.25
2023-01-13T12:46:53.394Z,20.26
2023-01-13T12:49:29.306Z,20.22
2023-01-13T12:51:56.387Z,20.23
2023-01-13T12:54:41.394Z,20.16
2023-01-13T12:57:35.426Z,20.01
2023-01-13T13:00:05.537Z,19.99
2023-01-13T13:02:34.211Z,20.06
2023-01-13T13:05:37.571Z,20.25
2023-01-13T13:08:23.123Z,20.36
2023-01-13T13:11:33.667Z,20.48
2023-01-13T13:14:02.465Z,20.59
2023-01-13T13:16:30.183Z,20.64
2023-01-13T13:19:19.027Z,20.69
2023-01-13T13:22:14.344Z,20.69
2023-01-13T13:24:43.431Z,20.66
2023-01-13T13:27:38.690Z,20.62
2023-01-13T13:30:18.647Z,20.55
2023-01-13T13:32:56.947Z,20.56
2023-01-13T13:35:29.960Z,20.59
2023-01-13T13:38:21.617Z,20.59
2023-01-13T13:41:07.144Z,20.66
2023-01-13T13:44:04.125Z,20.78
2023-01-13T13:46:47.104Z,20.80
2023-01-13T13:49:18.171Z,20.80
2023-01-13T13:52:15.129Z,20.89
2023-01-13T13:54:49.455Z,20.99
2023-01-13T13:57:45.072Z,21.10
2023-01-13T14:00:15.661Z,21.15
2023-01-13T14:02:52.638Z,21.11
2023-01-13T14:05:23.767Z,21.08
2023-01-13T14:08:17.381Z,21.08
2023-01-13T14:10:46.355Z,21.09
2023-01-13T14:13:15.203Z,21.07
2023-01-13T14:15:42.544Z,21.10
2023-01-13T14:18:14.485Z,21.07
2023-01-13T14:20:42.847Z,20.97
2023-01-13T14:23:18.173Z,20.86
2023-01-13T14:25:52.922Z,20.81
2023-01-13T14:28:32.659Z,20.82
2023-01-13T14:31:01.682Z,20.79
2023-01-13T14:33:42.066Z,20.77
2023-01-13T14:36:33.169Z,20.77
2023-01-13T14:39:03.281Z,20.81
2023-01-13T14:41:42.498Z,20.84
2023-01-13T14:44:27.449Z,20.85
2023-01-13T14:46:57.520Z,20.87
2023-01-13T14:49:41.711Z,20.82
2023-01-13T14:52:19.761Z,20.77
2023-01-13T14:54:58.883Z,20.73
2023-01-13T14:57:28.617Z,20.71
2023-01-13T14:59:57.645Z,20.61
2023-01-13T15:02:44.935Z,20.52
2023-01-13T15:05:19.104Z,20.47
2023-01-13T15:08:01.856Z,20.44
2023-01-13T15:10:30.751Z,20.45
2023-01-13T15:13:00.501Z,20.46
2023-01-13T15:15:35.126Z,20.45
2023-01-13T15:18:22.445Z,20.46
2023-01-13T15:20:51.832Z,20.50
2023-01-13T15:23:20.081Z,20.57
2023-01-13T15:25:48.084Z,20.67
2023-01-13T15:28:19.423Z,20.73
2023-01-13T15:30:47.310Z,20.75
2023-01-13T15:33:15.872Z,20.72
2023-01-13T15:35:46.137Z,20.72
2023-01-13T15:38:18.811Z,20.68
2023-01-13T15:40:47.468Z,20.68
2023-01-13T15:43:38.916Z,20.72
2023-01-13T15:46:38.328Z,20.77
2023-01-13T15:49:14.355Z,20.83
2023-01-13T15:51:41.708Z,20.91
2023-01-13T15:54:09.160Z,20.89
2023-01-13T15:56:38.311Z,20.87
2023-01-13T15:59:07.600Z,20.80
2023-01-13T16:01:34.709Z,20.69
2023-01-13T16:04:01.888Z,20.63
2023-01-13T16:06:33.690Z,20.56
2023-01-13T16:09:02.026Z,20.54
2023-01-13T16:11:30.564Z,20.55
2023-01-13T16:13:57.735Z,20.50
2023-01-13T16:16:27.862Z,20.47
2023-01-13T16:18:55.358Z,20.50
2023-01-13T16:21:25.469Z,20.57
2023-01-13T16:23:52.586Z,20.57
2023-01-13T16:26:25.860Z,20.55
2023-01-13T16:28:54.693Z,20.57
2023-01-13T16:31:33.299Z,20.56
2023-01-13T16:34:01.899Z,20.56
2023-01-13T16:36:31.200Z,20.54
2023-01-13T16:38:58.329Z,20.61
2023-01-13T16:41:25.716Z,20.59
2023-01-13T16:43:53.153Z,20.55
2023-01-13T16:46:29.231Z,20.59
2023-01-13T16:49:01.777Z,20.82
2023-01-13T16:51:28.923Z,20.81
2023-01-13T16:53:56.135Z,20.71
2023-01-13T16:56:28.794Z,20.64
2023-01-13T16:58:58.353Z,20.65
2023-01-13T17:01:28.561Z,20.62
2023-01-13T17:03:55.991Z,20.53
2023-01-13T17:06:37.915Z,20.45
2023-01-13T17:09:26.275Z,20.39
2023-01-13T17:11:53.931Z,20.34
2023-01-13T17:14:23.653Z,20.27
2023-01-13T17:16:52.907Z,20.21
2023-01-13T17:19:21.256Z,20.12
2023-01-13T17:21:48.339Z,20.06
2023-01-13T17:24:15.516Z,20.04
2023-01-13T17:26:49.581Z,19.98
2023-01-13T17:29:23.266Z,19.99
2023-01-13T17:31:51.561Z,19.95
2023-01-13T17:34:19.677Z,19.93
2023-01-13T17:36:46.695Z,19.90
2023-01-13T17:39:22.174Z,19.86
2023-01-13T17:41:49.940Z,19.83
2023-01-13T17:44:18.656Z,19.78
2023-01-13T17:46:46.551Z,19.77
2023-01-13T17:49:14.840Z,19.77
2023-01-13T17:51:42.291Z,19.73
2023-01-13T17:54:13.261Z,19.71
2023-01-13T17:56:41.310Z,19.70
2023-01-13T17:59:10.615Z,19.71
2023-01-13T18:01:38.275Z,19.72
2023-01-13T18:04:06.958Z,19.74
2023-01-13T18:06:34.258Z,19.71
2023-01-13T18:09:01.707Z,19.70
2023-01-13T18:11:28.927Z,19.66
2023-01-13T18:13:58.904Z,19.65
2023-01-13T18:16:29.732Z,19.63
2023-01-13T18:19:18.407Z,19.59
2023-01-13T18:22:05.055Z,19.57
2023-01-13T18:24:50.793Z,19.56
2023-01-13T18:27:22.873Z,19.51
2023-01-13T18:29:58.757Z,19.49
2023-01-13T18:32:32.868Z,19.48
2023-01-13T18:35:05.982Z,19.49
2023-01-13T18:37:36.245Z,19.52
2023-01-13T18:40:04.742Z,19.56
2023-01-13T18:42:50.125Z,19.59
2023-01-13T18:45:21.131Z,19.66
2023-01-13T18:47:48.186Z,19.67
2023-01-13T18:50:17.367Z,19.70
2023-01-13T18:52:44.673Z,19.74
2023-01-13T18:55:11.822Z,19.73
2023-01-13T18:57:41.538Z,19.75
2023-01-13T19:00:11.921Z,19.73
2023-01-13T19:02:39.398Z,19.67
2023-01-13T19:05:07.141Z,19.61
2023-01-13T19:07:35.930Z,19.57
2023-01-13T19:10:05.141Z,19.56
2023-01-13T19:12:33.918Z,19.55
2023-01-13T19:15:03.107Z,19.55
2023-01-13T19:17:35.084Z,19.57
2023-01-13T19:20:02.389Z,19.64
2023-01-13T19:22:32.995Z,19.69
2023-01-13T19:25:02.025Z,19.73
2023-01-13T19:27:30.017Z,19.78
2023-01-13T19:30:03.361Z,19.77
2023-01-13T19:32:33.341Z,19.84
2023-01-13T19:35:01.262Z,19.89
2023-01-13T19:37:30.671Z,19.94
2023-01-13T19:40:01.051Z,19.96
2023-01-13T19:42:46.466Z,19.99
2023-01-13T19:45:27.820Z,19.98
2023-01-13T19:47:56.272Z,20.00
2023-01-13T19:50:23.738Z,20.04
2023-01-13T19:52:50.763Z,20.05
2023-01-13T19:55:20.018Z,20.05
2023-01-13T19:57:47.124Z,20.05
2023-01-13T20:00:20.918Z,20.01
2023-01-13T20:02:49.791Z,20.00
2023-01-13T20:05:21.554Z,20.00
2023-01-13T20:07:50.067Z,20.00
2023-01-13T20:10:19.363Z,20.02
2023-01-13T20:12:46.476Z,20.03
2023-01-13T20:15:13.908Z,20.04
2023-01-13T20:17:41.786Z,20.06
2023-01-13T20:20:11.131Z,20.07
2023-01-13T20:22:39.831Z,20.05
2023-01-13T20:25:07.632Z,19.97
2023-01-13T20:27:34.892Z,19.95
2023-01-13T20:30:01.943Z,19.95
2023-01-13T20:32:29.228Z,19.93
2023-01-13T20:34:56.338Z,19.91
2023-01-13T20:37:23.407Z,19.94
2023-01-13T20:39:50.522Z,19.97
2023-01-13T20:42:29.773Z,19.96
2023-01-13T20:45:01.380Z,19.95
2023-01-13T20:47:29.878Z,19.96
2023-01-13T20:49:56.970Z,19.95
2023-01-13T20:52:24.184Z,19.92
2023-01-13T20:54:51.450Z,19.93
2023-01-13T20:57:18.486Z,19.95
2023-01-13T20:59:45.705Z,19.97
2023-01-13T21:02:14.973Z,19.95
2023-01-13T21:04:42.953Z,19.92
2023-01-13T21:07:10.497Z,19.91
2023-01-13T21:09:37.744Z,19.92
2023-01-13T21:12:23.441Z,19.93
2023-01-13T21:15:09.223Z,19.93
2023-01-13T21:17:54.923Z,19.90
2023-01-13T21:20:22.045Z,19.84
2023-01-13T21:22:49.857Z,19.84
2023-01-13T21:25:18.088Z,19.84
2023-01-13T21:27:45.323Z,19.85
2023-01-13T21:30:15.169Z,19.85
2023-01-13T21:32:43.362Z,19.88
2023-01-13T21:35:11.554Z,19.89
2023-01-13T21:37:40.056Z,19.89
2023-01-13T21:40:10.479Z,19.91
2023-01-13T21:42:55.885Z,19.89
2023-01-13T21:45:41.620Z,19.85
2023-01-13T21:48:08.803Z,19.78
2023-01-13T21:50:38.444Z,19.79
2023-01-13T21:53:07.630Z,19.82
2023-01-13T21:55:37.071Z,19.82
2023-01-13T21:58:11.689Z,19.85
2023-01-13T22:00:40.874Z,19.83
2023-01-13T22:03:09.617Z,19.87
2023-01-13T22:05:37.084Z,19.87
2023-01-13T22:08:04.700Z,19.85
2023-01-13T22:10:32.421Z,19.82
2023-01-13T22:13:21.557Z,19.81
2023-01-13T22:15:48.824Z,19.79
2023-01-13T22:18:18.489Z,19.83
2023-01-13T22:20:46.261Z,19.86
2023-01-13T22:23:13.784Z,19.84
2023-01-13T22:25:40.950Z,19.84
2023-01-13T22:28:09.557Z,19.84
2023-01-13T22:30:36.753Z,19.83
2023-01-13T22:33:03.972Z,19.77
2023-01-13T22:35:31.059Z,19.76
2023-01-13T22:37:59.015Z,19.78
2023-01-13T22:40:26.139Z,19.79
2023-01-13T22:42:53.173Z,19.77
2023-01-13T22:45:20.199Z,19.72
2023-01-13T22:47:48.006Z,19.69
2023-01-13T22:50:16.865Z,19.70
2023-01-13T22:52:44.251Z,19.70
2023-01-13T22:55:11.354Z,19.70
2023-01-13T22:57:47.359Z,19.67
2023-01-13T23:00:19.242Z,19.63
2023-01-13T23:02:46.657Z,19.64
2023-01-13T23:05:14.180Z,19.61
2023-01-13T23:07:41.604Z,19.63
2023-01-13T23:10:09.335Z,19.64
2023-01-13T23:12:36.361Z,19.63
2023-01-13T23:15:04.059Z,19.62
2023-01-13T23:17:31.081Z,19.64
2023-01-13T23:19:58.071Z,19.69
2023-01-13T23:22:25.598Z,19.69
2023-01-13T23:24:52.651Z,19.68
2023-01-13T23:27:19.685Z,19.68
2023-01-13T23:29:46.802Z,19.65
2023-01-13T23:32:13.813Z,19.64
2023-01-13T23:34:40.863Z,19.64
2023-01-13T23:37:07.995Z,19.63
2023-01-13T23:39:35.055Z,19.61
2023-01-13T23:42:02.123Z,19.58
2023-01-13T23:44:29.749Z,19.58
2023-01-13T23:46:57.020Z,19.59
2023-01-13T23:49:24.403Z,19.65
2023-01-13T23:51:52.245Z,19.68
2023-01-13T23:54:19.956Z,19.70
2023-01-13T23:56:50.064Z,19.72
2023-01-13T23:59:17.095Z,19.73
